Time;durP1;ratioP1;P1;durP2;ratioP2;P2;SDS_P1;SDS_P2;PMS_P1;PMS_P2;Temp;Humidity;BMP_temperature;BMP_pressure;BME280_temperature;BME280_humidity;BME280_pressure;Samples;Min_cycle;Max_cycle;Signal;HPM_P1;HPM_P2
2020/12/26 00:02:10;;;;;;;2.07;1.40;;;;;;;1.29;82.16;100863.17;5103076;58;21133;-85
2020/12/26 00:07:15;;;;;;;8.00;1.17;;;;;;;1.29;82.22;100865.33;5103041;58;21188;-85
2020/12/26 00:12:21;;;;;;;2.30;1.30;;;;;;;1.28;82.29;100862.33;5102853;58;21149;-85
2020/12/26 00:17:26;;;;;;;6.03;2.00;;;;;;;1.25;82.44;100861.57;5102914;58;21145;-85
2020/12/26 00:22:36;;;;;;;1.17;1.00;;;;;;;1.22;82.36;100862.52;5103245;58;21447;-85
2020/12/26 00:27:41;;;;;;;2.47;1.00;;;;;;;1.21;82.39;100858.69;5103057;58;21475;-85
2020/12/26 00:32:47;;;;;;;1.80;1.20;;;;;;;1.17;82.54;100851.42;5103025;58;21519;-85
2020/12/26 00:37:53;;;;;;;3.50;0.80;;;;;;;1.14;82.79;100855.42;5102749;58;21145;-84
2020/12/26 00:42:59;;;;;;;3.03;0.90;;;;;;;1.11;83.09;100863.79;5102874;58;21499;-85
2020/12/26 00:48:04;;;;;;;1.40;1.30;;;;;;;1.10;82.99;100873.36;5102792;58;21089;-85
2020/12/26 00:53:10;;;;;;;2.37;1.40;;;;;;;1.09;83.14;100866.89;5102835;58;21452;-85
2020/12/26 00:58:16;;;;;;;1.83;1.37;;;;;;;1.05;83.27;100864.41;5102944;58;21133;-85
2020/12/26 01:03:22;;;;;;;1.13;1.03;;;;;;;1.04;83.19;100869.22;5102980;58;21141;-85
2020/12/26 01:08:27;;;;;;;1.70;1.13;;;;;;;1.03;83.26;100869.27;5102911;58;21078;-85
2020/12/26 01:13:33;;;;;;;3.63;1.50;;;;;;;0.99;83.36;100865.91;5085693;57;21082;-85
2020/12/26 01:18:39;;;;;;;2.03;1.57;;;;;;;0.97;83.51;100874.22;5079982;58;21296;-85
2020/12/26 01:23:45;;;;;;;1.63;1.20;;;;;;;0.97;83.31;100873.36;5079907;58;21299;-85
2020/12/26 01:28:50;;;;;;;2.03;1.33;;;;;;;0.97;83.64;100870.75;5079945;58;21272;-85
2020/12/26 01:33:55;;;;;;;2.60;2.10;;;;;;;0.96;83.50;100876.86;5079848;58;21346;-85
2020/12/26 01:39:01;;;;;;;6.13;1.40;;;;;;;0.93;83.58;100876.95;5079879;58;21347;-85
2020/12/26 01:44:06;;;;;;;5.23;1.63;;;;;;;0.94;83.53;100878.21;5079991;58;21307;-85
2020/12/26 01:49:13;;;;;;;3.30;1.50;;;;;;;0.96;83.63;100872.95;5079871;58;21260;-85
2020/12/26 01:54:19;;;;;;;6.83;1.77;;;;;;;0.98;83.50;100871.16;5079750;58;21152;-85
2020/12/26 01:59:25;;;;;;;4.73;1.50;;;;;;;0.98;83.44;100865.95;5079811;58;21260;-85
2020/12/26 02:04:30;;;;;;;4.40;1.73;;;;;;;0.97;83.72;100870.75;5079840;58;21268;-85
2020/12/26 02:09:36;;;;;;;4.00;1.70;;;;;;;0.98;83.71;100871.16;5079787;58;21240;-85
2020/12/26 02:14:51;;;;;;;4.70;1.80;;;;;;;0.98;83.75;100873.77;5098855;58;21157;-84
2020/12/26 02:19:56;;;;;;;4.60;1.43;;;;;;;0.99;83.82;100872.86;5102539;58;21471;-85
2020/12/26 02:25:02;;;;;;;5.90;1.83;;;;;;;0.98;83.94;100869.41;5102535;58;21078;-85
2020/12/26 02:30:07;;;;;;;5.77;1.43;;;;;;;1.01;84.01;100867.16;5102563;58;21142;-85
2020/12/26 02:35:13;;;;;;;3.67;1.43;;;;;;;1.00;83.90;100860.25;5102619;58;21170;-85
2020/12/26 02:40:18;;;;;;;2.53;1.13;;;;;;;1.00;83.83;100854.59;5102415;58;21461;-85
2020/12/26 02:45:25;;;;;;;5.10;1.30;;;;;;;1.03;83.74;100866.66;5102580;58;21156;-85
2020/12/26 02:50:30;;;;;;;4.33;2.07;;;;;;;1.02;83.76;100871.47;5102534;58;21459;-84
2020/12/26 02:55:36;;;;;;;1.70;1.20;;;;;;;1.03;83.66;100868.81;5102643;58;21160;-85
2020/12/26 03:00:43;;;;;;;2.83;2.10;;;;;;;1.03;83.49;100866.21;5102513;58;21396;-85
2020/12/26 03:05:48;;;;;;;1.47;1.00;;;;;;;1.02;83.63;100874.08;5102612;58;21156;-85
2020/12/26 03:10:54;;;;;;;1.33;1.23;;;;;;;1.02;83.49;100876.67;5103160;58;21169;-85
2020/12/26 03:16:00;;;;;;;3.23;1.77;;;;;;;1.03;83.40;100878.38;5103180;57;21145;-85
2020/12/26 03:21:06;;;;;;;3.83;1.40;;;;;;;1.05;83.43;100881.80;5103214;58;21517;-85
2020/12/26 03:26:11;;;;;;;5.20;1.80;;;;;;;1.08;83.36;100886.88;5103215;58;21195;-85
2020/12/26 03:31:17;;;;;;;3.70;2.07;;;;;;;1.09;83.35;100889.88;5103125;58;21153;-84
2020/12/26 03:36:22;;;;;;;1.53;1.43;;;;;;;1.12;83.40;100891.55;5103125;58;21514;-85
2020/12/26 03:41:28;;;;;;;2.97;1.93;;;;;;;1.12;83.38;100891.55;5103216;58;21407;-85
2020/12/26 03:46:33;;;;;;;3.23;1.93;;;;;;;1.12;83.48;100897.61;5103166;58;21459;-85
2020/12/26 03:51:39;;;;;;;3.83;1.30;;;;;;;1.15;83.33;100906.62;5103044;58;21143;-85
2020/12/26 03:56:45;;;;;;;5.87;1.20;;;;;;;1.16;83.27;100907.48;5103136;58;21432;-84
2020/12/26 04:01:51;;;;;;;1.83;1.60;;;;;;;1.16;83.26;100911.39;5103306;58;21149;-85
2020/12/26 04:06:56;;;;;;;1.30;1.20;;;;;;;1.16;83.19;100910.08;5103035;58;21133;-85
2020/12/26 04:12:02;;;;;;;3.00;1.30;;;;;;;1.16;83.19;100908.33;5102860;58;21098;-85
2020/12/26 04:17:07;;;;;;;7.33;1.40;;;;;;;1.18;83.07;100905.68;5102876;58;21163;-85
2020/12/26 04:22:12;;;;;;;1.93;1.70;;;;;;;1.17;82.93;100909.19;5102937;58;21102;-85
2020/12/26 04:27:18;;;;;;;2.07;1.67;;;;;;;1.19;83.02;100919.11;5102979;58;21085;-85
2020/12/26 04:32:23;;;;;;;2.83;1.67;;;;;;;1.19;82.93;100921.27;5103073;58;21145;-85
2020/12/26 04:37:29;;;;;;;1.57;1.30;;;;;;;1.22;82.93;100920.32;5102923;58;21470;-85
2020/12/26 04:42:35;;;;;;;4.20;2.20;;;;;;;1.22;82.81;100917.71;5102947;58;21136;-85
2020/12/26 04:47:46;;;;;;;5.57;1.37;;;;;;;1.22;82.75;100923.74;5102765;58;21133;-85
2020/12/26 04:52:58;;;;;;;1.80;1.40;;;;;;;1.25;82.61;100928.01;5101383;58;21155;-85
2020/12/26 04:58:11;;;;;;;1.43;1.10;;;;;;;1.27;82.65;100927.52;5102813;58;21193;-85
2020/12/26 05:03:17;;;;;;;5.33;1.22;;;;;;;1.28;82.59;100927.91;5103216;58;21128;-85
2020/12/26 05:08:23;;;;;;;3.70;1.20;;;;;;;1.29;82.56;100931.77;5103003;58;21106;-85
2020/12/26 05:13:28;;;;;;;4.33;1.00;;;;;;;1.31;82.61;100932.58;5103008;58;21168;-85
2020/12/26 05:18:38;;;;;;;2.97;1.77;;;;;;;1.31;82.55;100933.88;5102982;58;21491;-85
2020/12/26 05:23:43;;;;;;;3.67;1.13;;;;;;;1.31;82.58;100936.48;5102785;58;21161;-85
2020/12/26 05:28:51;;;;;;;3.43;2.90;;;;;;;1.31;82.52;100939.55;5102842;58;21145;-85
2020/12/26 05:34:01;;;;;;;3.57;2.03;;;;;;;1.27;82.59;100941.39;5061312;58;21495;-85
2020/12/26 05:39:07;;;;;;;3.90;1.30;;;;;;;1.28;82.45;100935.28;5101558;58;21172;-85
2020/12/26 05:44:13;;;;;;;2.07;1.60;;;;;;;1.23;82.14;100941.53;5102715;58;21168;-85
2020/12/26 05:49:35;;;;;;;2.20;1.33;;;;;;;1.15;82.01;100948.30;5102746;58;21220;-85
2020/12/26 05:54:53;;;;;;;1.50;1.40;;;;;;;1.09;81.95;100945.88;5101855;58;21137;-85
2020/12/26 05:59:59;;;;;;;6.90;1.70;;;;;;;1.01;82.15;100950.50;5102661;58;21220;-85
2020/12/26 06:05:07;;;;;;;5.90;1.73;;;;;;;0.96;82.26;100950.63;5102522;58;21078;-84
2020/12/26 06:10:12;;;;;;;2.37;1.50;;;;;;;0.94;82.33;100952.43;5095644;58;21207;-85
2020/12/26 06:15:22;;;;;;;2.47;1.30;;;;;;;0.94;82.37;100959.39;5008068;58;21160;-85
2020/12/26 06:20:28;;;;;;;2.70;1.83;;;;;;;0.93;82.29;100963.74;4990769;59;21110;-85
2020/12/26 06:25:34;;;;;;;2.53;1.20;;;;;;;0.90;82.27;100970.38;4990664;59;21157;-85
2020/12/26 06:30:40;;;;;;;11.97;2.30;;;;;;;0.88;82.33;100973.92;4979090;59;21164;-85
2020/12/26 06:35:46;;;;;;;4.77;1.73;;;;;;;0.85;82.38;100987.88;4891578;60;21298;-85
2020/12/26 06:40:57;;;;;;;2.17;1.60;;;;;;;0.82;82.60;100998.38;4891573;60;21300;-85
2020/12/26 06:46:03;;;;;;;2.60;1.40;;;;;;;0.86;82.67;101009.56;4891632;61;21692;-85
2020/12/26 06:51:43;;;;;;;2.47;1.30;;;;;;;0.87;82.76;101008.22;4857054;61;21610;-85
2020/12/26 06:56:49;;;;;;;2.23;1.40;;;;;;;0.89;82.93;101023.34;4865623;59;1130827;-86
2020/12/26 07:02:00;;;;;;;3.20;1.37;;;;;;;0.90;82.54;101038.08;4862055;59;1134375;-86
2020/12/26 07:07:07;;;;;;;3.90;1.23;;;;;;;0.90;82.87;101048.49;4901809;59;1132145;-87
2020/12/26 07:12:14;;;;;;;4.40;1.20;;;;;;;0.93;82.88;101038.41;4868261;59;1134348;-87
2020/12/26 07:17:25;;;;;;;3.70;2.10;;;;;;;0.95;82.98;101047.88;4866427;58;1134690;-87
2020/12/26 07:22:33;;;;;;;1.23;1.00;;;;;;;0.95;82.79;101045.28;4965503;59;1132667;-86
2020/12/26 07:27:42;;;;;;;1.40;1.17;;;;;;;0.95;82.78;101058.75;4891509;58;1134379;-87
2020/12/26 07:32:58;;;;;;;5.13;2.27;;;;;;;0.93;82.78;101057.48;4900828;59;1134264;-86
2020/12/26 07:38:09;;;;;;;1.50;0.90;;;;;;;0.89;83.00;101062.41;4896203;59;1134070;-87
2020/12/26 07:43:19;;;;;;;2.10;0.83;;;;;;;0.88;83.07;101069.81;4897775;59;1134553;-87
2020/12/26 07:48:25;;;;;;;2.57;1.50;;;;;;;0.89;83.17;101074.13;4907476;58;1134306;-87
2020/12/26 07:53:30;;;;;;;2.93;1.57;;;;;;;0.89;83.25;101071.52;4932309;58;1134540;-87
2020/12/26 07:58:36;;;;;;;4.63;2.53;;;;;;;0.92;83.48;101079.66;4903375;59;1134571;-87
2020/12/26 08:03:41;;;;;;;6.10;2.13;;;;;;;0.95;83.27;101082.19;4903947;59;1134778;-87
2020/12/26 08:08:47;;;;;;;2.83;1.53;;;;;;;0.96;83.29;101079.99;4972780;59;1134279;-87
2020/12/26 08:14:02;;;;;;;2.43;1.40;;;;;;;0.93;83.48;101082.23;4776658;58;1134223;-87
2020/12/26 08:19:08;;;;;;;2.17;1.67;;;;;;;0.99;83.55;101091.63;4776346;60;1134194;-87
2020/12/26 08:24:13;;;;;;;2.97;1.37;;;;;;;1.03;83.65;101088.90;4739368;59;1134092;-87
2020/12/26 08:29:24;;;;;;;5.40;1.75;;;;;;;1.07;83.77;101094.02;4738806;59;1134284;-87
2020/12/26 08:40:04;;;;;;;1.40;1.17;;;;;;;1.15;83.63;101107.21;4447867;65;21251;-87
2020/12/26 08:45:33;;;;;;;13.43;7.13;;;;;;;1.15;83.59;101105.05;4443502;65;21225;-87
2020/12/26 08:50:39;;;;;;;26.70;13.17;;;;;;;1.18;83.65;101107.58;4415050;63;1132329;-87
2020/12/26 08:55:55;;;;;;;11.93;5.25;;;;;;;1.23;83.65;101109.58;4427564;64;1139031;-88
2020/12/26 09:01:06;;;;;;;10.00;3.20;;;;;;;1.24;83.54;101112.59;4527565;65;21156;-87
2020/12/26 09:06:11;;;;;;;8.33;3.40;;;;;;;1.27;83.51;101119.02;4460112;62;1132146;-88
2020/12/26 09:11:17;;;;;;;45.43;19.47;;;;;;;1.27;83.50;101122.48;4494699;65;21127;-87
2020/12/26 09:16:23;;;;;;;6.87;2.50;;;;;;;1.27;83.29;101130.73;4603395;63;1134333;-88
2020/12/26 09:21:30;;;;;;;7.67;1.93;;;;;;;1.26;83.25;101133.80;4512707;63;1134271;-87
2020/12/26 09:26:39;;;;;;;13.33;4.40;;;;;;;1.25;83.04;101138.60;4601597;63;1132419;-87
2020/12/26 09:31:45;;;;;;;6.37;1.90;;;;;;;1.23;82.78;101136.48;4623761;63;21195;-88
2020/12/26 09:37:07;;;;;;;9.00;2.33;;;;;;;1.25;82.09;101134.69;4693663;61;21138;-88
2020/12/26 09:42:13;;;;;;;5.50;2.13;;;;;;;1.28;81.82;101146.33;4637216;61;1130099;-87
2020/12/26 09:47:18;;;;;;;7.93;2.40;;;;;;;1.33;81.82;101150.97;4654193;62;1132353;-87
2020/12/26 09:52:25;;;;;;;3.23;1.77;;;;;;;1.32;80.78;101150.56;4647021;61;1134303;-87
2020/12/26 09:57:31;;;;;;;6.63;2.10;;;;;;;1.29;81.14;101144.58;4607355;62;1134412;-87
2020/12/26 10:02:37;;;;;;;4.00;2.90;;;;;;;1.33;81.17;101160.54;4679471;62;1132226;-87
2020/12/26 10:07:46;;;;;;;7.22;2.10;;;;;;;1.33;80.96;101164.45;4640537;61;1134671;-87
2020/12/26 10:12:52;;;;;;;3.53;1.87;;;;;;;1.31;80.43;101155.81;4598224;60;1134348;-87
2020/12/26 10:17:58;;;;;;;103.57;51.33;;;;;;;1.28;80.57;101154.59;4733048;61;1134626;-86
2020/12/26 10:23:03;;;;;;;12.90;6.43;;;;;;;1.36;81.09;101151.34;4660203;60;1140541;-87
2020/12/26 10:28:09;;;;;;;21.97;7.83;;;;;;;1.44;80.85;101145.87;4828796;60;1136663;-87
2020/12/26 10:33:17;;;;;;;18.83;5.03;;;;;;;1.54;80.57;101149.45;4798636;60;1136183;-87
2020/12/26 10:38:23;;;;;;;8.40;3.00;;;;;;;1.67;81.11;101153.88;4653652;61;1136439;-88
2020/12/26 10:43:28;;;;;;;11.07;3.00;;;;;;;1.76;80.56;101147.05;4709742;61;1134760;-87
2020/12/26 10:48:34;;;;;;;7.57;2.47;;;;;;;1.85;80.00;101152.42;4720795;61;1136891;-87
2020/12/26 10:53:39;;;;;;;9.67;2.00;;;;;;;1.88;79.19;101152.33;4704258;61;1134702;-87
2020/12/26 10:58:45;;;;;;;4.93;2.53;;;;;;;1.80;79.45;101155.19;4707516;61;1134179;-87
2020/12/26 11:03:51;;;;;;;6.45;2.95;;;;;;;1.74;80.12;101156.67;4715061;61;1134301;-88
2020/12/26 11:08:56;;;;;;;4.17;2.07;;;;;;;1.63;79.21;101157.47;4723147;61;1134201;-87
2020/12/26 11:14:02;;;;;;;26.13;6.00;;;;;;;1.48;79.24;101161.84;4713365;61;1134560;-87
2020/12/26 11:19:09;;;;;;;30.13;4.47;;;;;;;1.45;79.76;101158.02;4747871;60;1136476;-87
2020/12/26 11:24:14;;;;;;;4.70;2.63;;;;;;;1.47;79.39;101156.22;4704579;61;1136242;-87
2020/12/26 11:29:20;;;;;;;5.10;2.27;;;;;;;1.51;79.84;101160.45;4720327;60;1134140;-86
2020/12/26 11:34:25;;;;;;;2.87;1.90;;;;;;;1.55;79.16;101155.52;4711799;61;1134261;-87
2020/12/26 11:39:31;;;;;;;11.03;3.90;;;;;;;1.61;79.17;101147.08;4750894;61;1134345;-87
2020/12/26 11:44:36;;;;;;;10.97;4.47;;;;;;;1.81;79.46;101143.86;4707641;61;1136668;-87
2020/12/26 11:49:42;;;;;;;13.83;4.47;;;;;;;2.01;78.92;101136.23;4749066;61;1134654;-87
2020/12/26 11:54:48;;;;;;;8.10;4.17;;;;;;;2.13;77.77;101130.23;4752900;61;21178;-88
2020/12/26 11:59:53;;;;;;;12.33;3.23;;;;;;;2.32;78.49;101139.13;4756941;61;21262;-88
2020/12/26 12:04:59;;;;;;;9.27;3.60;;;;;;;2.41;77.56;101133.62;4745247;62;21254;-88
2020/12/26 12:10:05;;;;;;;17.07;5.33;;;;;;;2.68;75.86;101126.58;4745879;61;21151;-89
2020/12/26 12:15:10;;;;;;;11.47;3.67;;;;;;;2.56;76.37;101120.48;4752213;61;21190;-88
2020/12/26 12:20:17;;;;;;;10.97;3.60;;;;;;;3.02;76.88;101119.23;4755046;61;21159;-87
2020/12/26 12:25:24;;;;;;;15.80;5.93;;;;;;;3.56;74.64;101120.66;4745965;61;21171;-87
2020/12/26 12:30:30;;;;;;;8.40;3.17;;;;;;;4.05;75.51;101108.22;4756646;62;21115;-86
2020/12/26 12:35:35;;;;;;;11.30;2.73;;;;;;;4.41;72.46;101107.16;4747822;61;21187;-87
2020/12/26 12:40:41;;;;;;;7.13;3.47;;;;;;;4.59;72.30;101102.41;4739842;62;21231;-88
2020/12/26 12:45:46;;;;;;;7.60;2.70;;;;;;;4.65;70.72;101102.61;4873801;61;21174;-86
2020/12/26 12:50:53;;;;;;;6.87;2.90;;;;;;;4.56;68.65;101105.19;4862222;59;21182;-87
2020/12/26 12:56:01;;;;;;;5.93;2.10;;;;;;;4.53;70.08;101100.06;4868447;59;21169;-86
2020/12/26 13:01:08;;;;;;;7.30;2.60;;;;;;;4.33;69.46;101100.06;4856248;60;21154;-86
2020/12/26 13:06:21;;;;;;;4.83;2.43;;;;;;;4.06;70.58;101104.24;4869563;60;21154;-86
2020/12/26 13:11:26;;;;;;;4.97;2.70;;;;;;;3.74;69.99;101113.39;4855534;61;21653;-87
2020/12/26 13:16:32;;;;;;;8.17;2.60;;;;;;;3.50;70.42;101119.60;4865416;60;21198;-88
2020/12/26 13:21:37;;;;;;;2.97;2.07;;;;;;;3.53;71.02;101111.61;4867078;59;21111;-87
2020/12/26 13:26:48;;;;;;;4.53;2.57;;;;;;;3.63;70.32;101111.67;4853770;60;21217;-87
2020/12/26 13:31:54;;;;;;;2.30;1.33;;;;;;;3.59;69.64;101112.69;4881976;60;21209;-87
2020/12/26 13:36:59;;;;;;;9.03;2.90;;;;;;;3.46;69.82;101115.39;4858290;60;21186;-87
2020/12/26 13:42:05;;;;;;;17.77;9.13;;;;;;;3.18;69.96;101113.84;4892802;60;21220;-87
2020/12/26 13:47:11;;;;;;;6.30;3.50;;;;;;;2.97;70.89;101123.77;4940113;59;21565;-87
2020/12/26 13:52:22;;;;;;;4.47;2.30;;;;;;;2.78;71.32;101122.27;4943633;59;21355;-87
2020/12/26 13:57:34;;;;;;;3.27;2.17;;;;;;;2.64;71.86;101124.52;4922712;59;21170;-86
2020/12/26 14:02:40;;;;;;;16.07;6.07;;;;;;;2.50;72.01;101130.68;4927957;59;21161;-87
2020/12/26 14:07:46;;;;;;;32.67;14.80;;;;;;;2.40;72.67;101122.32;4884106;60;1132347;-88
2020/12/26 14:12:51;;;;;;;53.90;40.17;;;;;;;2.32;72.80;101120.86;4829456;59;1139108;-87
2020/12/26 14:17:57;;;;;;;37.75;22.05;;;;;;;2.24;72.98;101121.14;4828556;60;1138558;-87
2020/12/26 14:23:02;;;;;;;31.70;19.70;;;;;;;2.16;72.78;101123.13;4868263;60;1138301;-87
2020/12/26 14:28:08;;;;;;;89.93;61.13;;;;;;;2.08;72.60;101126.02;4844628;59;1138538;-87
2020/12/26 14:33:13;;;;;;;40.67;26.80;;;;;;;2.03;73.40;101126.60;4866479;60;1138738;-87
2020/12/26 14:38:19;;;;;;;16.93;8.13;;;;;;;1.99;73.51;101135.88;4831331;60;1138555;-86
2020/12/26 14:43:25;;;;;;;17.20;4.67;;;;;;;1.91;73.64;101123.55;4806242;60;1136372;-86
2020/12/26 14:48:30;;;;;;;84.33;19.87;;;;;;;1.88;73.14;101119.73;4732079;61;1136406;-87
2020/12/26 14:53:36;;;;;;;37.47;12.70;;;;;;;1.82;73.39;101109.52;4712698;60;1136155;-87
2020/12/26 14:58:42;;;;;;;20.13;10.03;;;;;;;1.78;73.70;101100.06;4748641;61;1138355;-87
2020/12/26 15:03:48;;;;;;;23.75;9.15;;;;;;;1.72;73.52;101094.14;4731386;61;1138534;-86
2020/12/26 15:08:54;;;;;;;15.47;6.07;;;;;;;1.66;73.67;101106.09;4733005;61;1136653;-86
2020/12/26 15:13:59;;;;;;;10.90;3.98;;;;;;;1.61;73.68;101100.60;4727275;61;1136674;-86
2020/12/26 15:19:05;;;;;;;22.07;7.63;;;;;;;1.57;73.70;101085.95;4751846;61;1136203;-89
2020/12/26 15:24:11;;;;;;;22.50;9.47;;;;;;;1.49;73.61;101085.35;4648185;62;1136221;-88
2020/12/26 15:29:16;;;;;;;12.27;5.83;;;;;;;1.44;73.69;101092.00;4664190;61;1136660;-88
2020/12/26 15:34:22;;;;;;;17.57;6.80;;;;;;;1.33;73.95;101091.03;4744964;60;1136393;-88
2020/12/26 15:39:28;;;;;;;35.00;13.30;;;;;;;1.33;73.95;101091.03;4731010;61;1136415;-88
2020/12/26 15:44:33;;;;;;;62.23;26.30;;;;;;;1.25;73.84;101095.61;4763680;60;1138687;-88
2020/12/26 15:49:39;;;;;;;78.37;29.70;;;;;;;1.23;74.00;101083.52;4804084;60;1138415;-88
2020/12/26 15:54:46;;;;;;;52.13;18.47;;;;;;;1.16;74.00;101085.47;4796706;60;1138557;-87
2020/12/26 15:59:55;;;;;;;27.07;11.57;;;;;;;1.11;73.90;101075.63;4776960;60;1138575;-88
2020/12/26 16:05:01;;;;;;;51.28;19.80;;;;;;;1.04;74.00;101080.19;4764761;60;1138816;-88
2020/12/26 16:10:07;;;;;;;33.07;14.03;;;;;;;1.00;74.18;101070.75;4775335;60;1138301;-88
2020/12/26 16:15:13;;;;;;;32.80;11.23;;;;;;;0.97;74.28;101077.80;4762558;60;1138622;-88
2020/12/26 16:20:18;;;;;;;22.07;10.80;;;;;;;0.91;74.30;101071.48;4815141;60;1138222;-89
2020/12/26 16:25:24;;;;;;;38.60;13.07;;;;;;;0.87;74.48;101071.16;4772359;60;1138431;-89
2020/12/26 16:30:29;;;;;;;53.73;14.87;;;;;;;0.83;74.52;101073.44;4774926;60;1138347;-89
2020/12/26 16:35:35;;;;;;;26.57;9.20;;;;;;;0.80;74.68;101070.47;4833723;60;1138386;-90
2020/12/26 16:40:40;;;;;;;24.23;9.53;;;;;;;0.78;74.50;101071.40;4695599;61;1136335;-90
2020/12/26 16:45:46;;;;;;;29.47;10.77;;;;;;;0.74;74.76;101068.50;4781867;61;1134264;-90
2020/12/26 16:50:53;;;;;;;156.77;47.33;;;;;;;0.67;75.04;101054.34;4730406;60;1138808;-90
2020/12/26 16:55:59;;;;;;;175.33;55.63;;;;;;;0.67;75.04;101054.34;4704185;61;1140388;-88
2020/12/26 17:01:04;;;;;;;66.33;24.47;;;;;;;0.70;74.89;101054.72;4753481;61;1140867;-90
2020/12/26 17:06:21;;;;;;;69.27;23.43;;;;;;;0.68;74.85;101045.64;4766315;61;1138349;-90
2020/12/26 17:11:27;;;;;;;32.97;11.63;;;;;;;0.65;74.91;101040.97;4714117;60;1138335;-89
2020/12/26 17:16:32;;;;;;;28.70;9.83;;;;;;;0.63;74.91;101029.73;4703214;60;1138339;-89
2020/12/26 17:21:38;;;;;;;37.23;14.67;;;;;;;0.58;74.83;101021.23;4708050;61;1136441;-89
2020/12/26 17:26:43;;;;;;;158.23;40.70;;;;;;;0.55;74.91;101029.12;4759091;61;1138321;-88
2020/12/26 17:31:49;;;;;;;36.93;10.00;;;;;;;0.50;75.02;101025.78;4725791;61;1140535;-89
2020/12/26 17:36:54;;;;;;;112.42;24.23;;;;;;;0.45;75.14;101022.03;4703984;60;1138617;-89
2020/12/26 17:42:01;;;;;;;34.20;12.73;;;;;;;0.44;75.19;101026.83;4741203;61;1140510;-89
2020/12/26 17:47:06;;;;;;;34.43;10.93;;;;;;;0.41;75.25;101026.91;4718351;60;1138558;-89
2020/12/26 17:52:12;;;;;;;22.27;8.13;;;;;;;0.39;75.26;101022.19;4732772;61;1138434;-89
2020/12/26 17:57:17;;;;;;;33.57;10.43;;;;;;;0.38;75.25;101012.67;4664000;61;1136790;-89
2020/12/26 18:02:23;;;;;;;29.83;7.33;;;;;;;0.38;75.37;101010.52;4663717;61;1138459;-89
2020/12/26 18:07:28;;;;;;;20.67;7.17;;;;;;;0.37;75.49;101012.72;4717579;61;1136547;-89
2020/12/26 18:12:40;;;;;;;43.43;12.63;;;;;;;0.38;75.66;101016.58;4722730;60;1136724;-89
2020/12/26 18:18:09;;;;;;;21.53;8.00;;;;;;;0.41;75.84;101007.84;4712307;60;1138576;-89
2020/12/26 18:23:41;;;;;;;15.63;7.33;;;;;;;0.45;75.84;100996.45;4713813;61;1136296;-89
2020/12/26 18:28:42;;;;;;;36.60;10.00;;;;;;;0.47;75.88;100992.89;4717701;61;1136814;-89
2020/12/26 18:33:48;;;;;;;10.73;3.93;;;;;;;0.50;75.99;100998.45;4718879;60;1138618;-89
2020/12/26 18:38:55;;;;;;;11.87;5.57;;;;;;;0.49;75.94;100985.89;4712862;61;1136620;-89
2020/12/26 18:44:00;;;;;;;27.87;9.33;;;;;;;0.53;75.99;100986.66;4713556;61;1136446;-89
2020/12/26 18:49:13;;;;;;;14.40;5.58;;;;;;;0.55;76.13;100981.83;4709348;59;1136485;-89
2020/12/26 18:54:20;;;;;;;153.73;49.47;;;;;;;0.57;75.95;100991.75;4741179;60;1136633;-89
2020/12/26 18:59:28;;;;;;;61.80;22.67;;;;;;;0.58;76.16;100992.16;4747833;61;1140532;-89
2020/12/26 19:04:36;;;;;;;35.90;12.07;;;;;;;0.60;76.26;100984.31;4748087;61;1138584;-89
2020/12/26 19:09:42;;;;;;;35.47;11.17;;;;;;;0.63;76.36;100982.89;4745108;61;1138848;-89
2020/12/26 19:14:52;;;;;;;26.40;9.40;;;;;;;0.65;76.39;100985.86;4756609;60;1139051;-88
2020/12/26 19:19:59;;;;;;;27.98;10.15;;;;;;;0.66;76.52;100976.30;4728239;60;1136477;-89
2020/12/26 19:25:05;;;;;;;21.30;8.03;;;;;;;0.67;76.61;100979.31;4723426;59;1138783;-89
2020/12/26 19:30:11;;;;;;;14.97;5.70;;;;;;;0.68;76.55;100975.81;4816087;60;1136299;-89
2020/12/26 19:35:16;;;;;;;16.00;6.27;;;;;;;0.70;76.71;100987.03;4845568;59;1136233;-89
2020/12/26 19:40:22;;;;;;;11.37;5.67;;;;;;;0.71;76.93;100970.52;4855830;59;1136317;-90
2020/12/26 19:45:27;;;;;;;20.63;8.17;;;;;;;0.70;77.15;100970.97;4781701;60;1136263;-90
2020/12/26 19:50:33;;;;;;;13.95;4.62;;;;;;;0.72;77.14;100967.47;4785263;59;1136811;-90
2020/12/26 19:55:38;;;;;;;11.70;5.27;;;;;;;0.70;77.38;100947.53;4778284;59;1136442;-89
2020/12/26 20:00:44;;;;;;;20.23;6.23;;;;;;;0.72;77.48;100961.81;4630038;61;1136318;-90
2020/12/26 20:05:49;;;;;;;13.20;4.30;;;;;;;0.73;77.57;100941.84;4741645;61;1136727;-90
2020/12/26 20:10:58;;;;;;;18.33;6.87;;;;;;;0.75;77.78;100945.25;4695647;61;1136498;-89
2020/12/26 20:16:05;;;;;;;17.70;7.27;;;;;;;0.75;77.75;100946.11;4699636;60;1136379;-90
2020/12/26 20:21:11;;;;;;;21.57;7.60;;;;;;;0.78;77.86;100945.98;4704159;60;1136522;-89
2020/12/26 20:26:17;;;;;;;21.90;7.70;;;;;;;0.79;77.94;100945.54;4761642;60;1136173;-90
2020/12/26 20:31:25;;;;;;;20.17;7.33;;;;;;;0.83;78.00;100948.45;4750763;61;1136287;-89
2020/12/26 20:36:30;;;;;;;17.23;7.60;;;;;;;0.82;78.11;100937.19;4768531;61;1136341;-91
2020/12/26 20:41:36;;;;;;;34.00;10.33;;;;;;;0.84;78.16;100938.45;4752336;60;1136327;-90
2020/12/26 20:46:41;;;;;;;50.63;15.77;;;;;;;0.86;78.21;100939.26;4786729;60;1138644;-89
2020/12/26 20:51:47;;;;;;;41.53;12.90;;;;;;;0.87;78.24;100937.91;4827191;59;1138542;-89
2020/12/26 20:56:52;;;;;;;31.67;9.60;;;;;;;0.89;78.21;100924.40;4847647;59;1138836;-88
2020/12/26 21:01:59;;;;;;;22.48;7.92;;;;;;;0.97;78.13;100922.84;4830398;59;1136276;-89
2020/12/26 21:07:05;;;;;;;25.57;8.77;;;;;;;0.96;78.15;100912.02;4866664;59;1136334;-89
2020/12/26 21:12:13;;;;;;;22.77;8.23;;;;;;;0.98;78.06;100915.43;4825685;59;1136553;-89
2020/12/26 21:17:19;;;;;;;29.63;9.13;;;;;;;0.99;78.17;100908.88;4830800;59;1136214;-89
2020/12/26 21:22:24;;;;;;;31.17;11.43;;;;;;;1.02;78.14;100895.76;4924892;60;21181;-89
2020/12/26 21:27:32;;;;;;;17.43;6.10;;;;;;;1.04;78.20;100875.73;4827320;60;1134204;-89
2020/12/26 21:32:39;;;;;;;26.90;8.07;;;;;;;1.07;77.94;100879.96;4605142;62;1136687;-90
2020/12/26 21:37:45;;;;;;;22.27;6.60;;;;;;;1.10;78.04;100870.75;4776127;60;1136380;-89
2020/12/26 21:42:50;;;;;;;34.07;9.57;;;;;;;1.13;77.63;100868.05;4754280;60;1136406;-89
2020/12/26 21:47:56;;;;;;;16.37;6.30;;;;;;;1.13;77.78;100856.33;4764665;60;1136371;-89
2020/12/26 21:53:02;;;;;;;21.07;4.90;;;;;;;1.15;77.71;100858.89;4781491;60;1136430;-89
2020/12/26 21:58:07;;;;;;;12.45;5.83;;;;;;;1.16;77.45;100852.77;4769049;60;1136704;-90
2020/12/26 22:03:13;;;;;;;23.00;9.10;;;;;;;1.13;77.38;100842.45;4772535;60;1136215;-90
2020/12/26 22:08:19;;;;;;;19.67;6.10;;;;;;;1.10;77.46;100837.34;4791044;60;1136386;-90
2020/12/26 22:13:25;;;;;;;20.57;7.20;;;;;;;1.05;77.41;100832.30;4626597;60;1136192;-90
2020/12/26 22:18:31;;;;;;;15.63;6.93;;;;;;;1.04;77.42;100836.66;4626021;61;1136289;-90
2020/12/26 22:23:37;;;;;;;19.40;7.67;;;;;;;0.99;77.33;100829.89;4673876;61;1136419;-90
2020/12/26 22:28:42;;;;;;;19.57;7.33;;;;;;;0.95;77.27;100814.81;4635501;60;1136302;-90
2020/12/26 22:33:48;;;;;;;23.93;8.20;;;;;;;0.92;77.29;100805.80;4736653;60;1136313;-89
2020/12/26 22:38:54;;;;;;;14.93;6.70;;;;;;;0.88;77.18;100792.50;4818921;60;1136346;-90
2020/12/26 22:43:59;;;;;;;21.43;7.27;;;;;;;0.85;77.16;100784.79;4664714;61;1136275;-89
2020/12/26 22:49:05;;;;;;;27.77;10.60;;;;;;;0.83;77.21;100773.57;4681956;61;1136655;-90
2020/12/26 22:54:10;;;;;;;16.97;7.47;;;;;;;0.80;77.06;100787.13;4850343;59;1138410;-89
2020/12/26 22:59:16;;;;;;;26.73;11.13;;;;;;;0.74;77.09;100771.29;4659161;62;1136279;-89
2020/12/26 23:04:22;;;;;;;13.90;5.00;;;;;;;0.69;77.22;100761.02;4819338;59;1138264;-89
2020/12/26 23:09:27;;;;;;;17.23;6.60;;;;;;;0.67;77.13;100752.86;4801502;60;1136514;-89
2020/12/26 23:14:33;;;;;;;19.97;6.97;;;;;;;0.62;77.10;100743.89;4801147;60;1136498;-89
2020/12/26 23:19:39;;;;;;;24.33;8.30;;;;;;;0.63;77.21;100749.95;4797953;60;1136494;-89
2020/12/26 23:24:44;;;;;;;11.87;4.57;;;;;;;0.64;77.09;100741.23;4835643;60;1136146;-89
2020/12/26 23:29:50;;;;;;;18.97;7.93;;;;;;;0.65;76.95;100738.59;4799310;60;1236975;-88
2020/12/26 23:34:56;;;;;;;23.73;8.00;;;;;;;0.66;76.89;100729.03;4801294;60;1136620;-89
2020/12/26 23:40:02;;;;;;;25.97;7.83;;;;;;;0.66;76.64;100725.98;4801253;60;1136298;-89